createdAt,value
2018-11-23T00:00:44.665Z,26.27
2018-11-23T00:03:13.155Z,26.50
2018-11-23T00:05:41.651Z,26.03
2018-11-23T00:08:10.116Z,24.67
2018-11-23T00:10:38.606Z,22.73
2018-11-23T00:13:07.079Z,22.53
2018-11-23T00:15:35.531Z,21.90
2018-11-23T00:18:05.896Z,21.53
2018-11-23T00:20:34.551Z,23.23
2018-11-23T00:23:03.048Z,23.73
2018-11-23T00:25:31.508Z,23.77
2018-11-23T00:27:59.979Z,25.13
2018-11-23T00:30:29.701Z,25.17
2018-11-23T00:32:58.143Z,23.23
2018-11-23T00:35:27.947Z,22.63
2018-11-23T00:37:56.734Z,20.63
2018-11-23T00:40:26.554Z,23.70
2018-11-23T00:42:55.384Z,23.13
2018-11-23T00:45:23.953Z,23.40
2018-11-23T00:47:53.133Z,21.63
2018-11-23T00:50:22.829Z,20.77
2018-11-23T00:52:51.934Z,19.20
2018-11-23T00:55:21.471Z,21.23
2018-11-23T00:57:49.904Z,20.57
2018-11-23T01:00:22.585Z,19.40
2018-11-23T01:02:51.338Z,21.30
2018-11-23T01:05:19.966Z,21.13
2018-11-23T01:07:49.049Z,21.50
2018-11-23T01:10:18.699Z,21.67
2018-11-23T01:12:48.172Z,22.70
2018-11-23T01:15:16.665Z,22.20
2018-11-23T01:17:45.089Z,25.20
2018-11-23T01:20:18.312Z,25.57
2018-11-23T01:22:47.188Z,23.83
2018-11-23T02:12:12.701Z,27.53
2018-11-23T02:14:41.119Z,26.63
2018-11-23T02:17:09.551Z,25.90
2018-11-23T02:19:37.993Z,25.03
2018-11-23T02:22:06.441Z,23.07
2018-11-23T02:24:34.932Z,22.90
2018-11-23T02:27:03.421Z,22.00
2018-11-23T02:29:31.886Z,22.23
2018-11-23T02:32:00.334Z,22.13
2018-11-23T02:34:28.788Z,22.53
2018-11-23T02:36:57.246Z,20.63
2018-11-23T02:39:25.748Z,22.63
2018-11-23T02:41:54.185Z,23.03
2018-11-23T02:44:22.648Z,21.60
2018-11-23T02:46:51.096Z,22.10
2018-11-23T02:49:19.657Z,22.20
2018-11-23T02:51:48.078Z,21.80
2018-11-23T02:54:20.732Z,22.77
2018-11-23T02:56:49.680Z,23.00
2018-11-23T02:59:18.304Z,21.53
2018-11-23T03:01:46.790Z,20.60
2018-11-23T03:04:15.237Z,21.47
2018-11-23T03:06:43.688Z,21.67
2018-11-23T03:09:12.136Z,21.70
2018-11-23T03:11:41.277Z,21.77
2018-11-23T03:14:10.291Z,21.60
2018-11-23T03:16:38.968Z,21.53
2018-11-23T03:19:08.097Z,21.23
2018-11-23T03:21:36.553Z,22.17
2018-11-23T03:24:05.185Z,21.40
2018-11-23T03:26:33.616Z,21.83
2018-11-23T03:29:02.066Z,20.43
2018-11-23T03:31:30.519Z,21.47
2018-11-23T03:33:58.945Z,20.37
2018-11-23T03:36:27.389Z,21.50
2018-11-23T03:38:55.836Z,21.87
2018-11-23T03:41:24.268Z,20.40
2018-11-23T03:43:52.713Z,20.53
2018-11-23T03:46:21.152Z,22.20
2018-11-23T03:48:49.603Z,20.57
2018-11-23T03:51:18.022Z,20.07
2018-11-23T03:53:46.489Z,20.60
2018-11-23T03:56:14.952Z,21.40
2018-11-23T03:58:43.407Z,21.80
2018-11-23T04:01:11.843Z,21.67
2018-11-23T04:03:40.284Z,21.13
2018-11-23T04:06:08.765Z,21.27
2018-11-23T04:08:37.235Z,20.87
2018-11-23T04:11:05.860Z,20.77
2018-11-23T04:13:34.331Z,21.67
2018-11-23T04:16:02.773Z,22.17
2018-11-23T04:18:31.208Z,21.30
2018-11-23T04:21:03.390Z,21.17
2018-11-23T04:23:33.143Z,21.37
2018-11-23T04:26:01.586Z,21.10
2018-11-23T04:28:30.034Z,20.43
2018-11-23T04:30:58.491Z,20.20
2018-11-23T04:33:27.586Z,19.63
2018-11-23T04:35:56.584Z,20.93
2018-11-23T04:38:25.022Z,20.27
2018-11-23T04:40:53.488Z,20.83
2018-11-23T04:43:21.933Z,20.47
2018-11-23T04:45:50.396Z,20.77
2018-11-23T04:48:18.825Z,20.23
2018-11-23T04:50:47.260Z,20.17
2018-11-23T04:53:15.698Z,19.10
2018-11-23T04:55:44.161Z,20.17
2018-11-23T04:58:12.572Z,21.17
2018-11-23T05:00:41.033Z,19.93
2018-11-23T05:03:09.515Z,19.67
2018-11-23T05:05:37.945Z,21.13
2018-11-23T05:08:06.398Z,20.27
2018-11-23T05:10:34.831Z,21.70
2018-11-23T05:13:03.276Z,22.30
2018-11-23T05:15:31.718Z,21.67
2018-11-23T05:18:00.159Z,22.00
2018-11-23T05:20:28.598Z,20.93
2018-11-23T05:22:57.018Z,20.63
2018-11-23T05:25:25.481Z,20.93
2018-11-23T05:27:53.937Z,20.63
2018-11-23T05:30:22.526Z,20.27
2018-11-23T05:32:51.025Z,20.87
2018-11-23T05:35:19.801Z,19.50
2018-11-23T05:37:48.286Z,20.10
2018-11-23T05:40:18.925Z,21.00
2018-11-23T05:42:47.369Z,22.00
2018-11-23T05:45:17.189Z,21.57
2018-11-23T05:47:46.000Z,21.00
2018-11-23T05:50:17.048Z,20.03
2018-11-23T05:52:46.044Z,19.93
2018-11-23T05:55:14.616Z,21.73
2018-11-23T05:57:43.382Z,20.37
2018-11-23T06:00:16.370Z,19.67
2018-11-23T06:02:44.955Z,19.77
2018-11-23T06:05:13.421Z,19.70
2018-11-23T06:07:41.901Z,19.47
2018-11-23T06:10:13.191Z,19.77
2018-11-23T06:12:41.968Z,20.73
2018-11-23T06:15:13.938Z,19.47
2018-11-23T06:17:42.905Z,21.27
2018-11-23T06:20:13.615Z,21.13
2018-11-23T06:22:42.659Z,20.07
2018-11-23T06:25:16.536Z,20.97
2018-11-23T06:27:45.010Z,20.20
2018-11-23T06:30:13.443Z,21.63
2018-11-23T06:32:53.584Z,20.37
2018-11-23T06:35:22.031Z,20.97
2018-11-23T06:37:50.490Z,21.63
2018-11-23T06:40:19.231Z,21.00
2018-11-23T06:42:47.737Z,22.20
2018-11-23T06:45:16.197Z,21.03
2018-11-23T06:47:44.623Z,21.80
2018-11-23T06:50:14.668Z,21.90
2018-11-23T06:52:43.113Z,20.83
2018-11-23T06:55:12.134Z,22.63
2018-11-23T06:57:41.133Z,20.97
2018-11-23T07:00:14.354Z,21.50
2018-11-23T07:02:43.751Z,22.53
2018-11-23T07:05:12.619Z,22.73
2018-11-23T07:07:41.081Z,21.87
2018-11-23T07:10:10.447Z,22.43
2018-11-23T07:12:39.772Z,22.73
2018-11-23T07:15:10.051Z,22.97
2018-11-23T07:17:38.863Z,22.77
2018-11-23T07:20:09.046Z,22.70
2018-11-23T07:22:37.936Z,23.20
2018-11-23T07:25:07.129Z,23.57
2018-11-23T07:27:35.630Z,22.83
2018-11-23T07:30:05.872Z,22.90
2018-11-23T07:32:34.401Z,23.27
2018-11-23T07:35:02.869Z,23.60
2018-11-23T07:37:31.301Z,24.57
2018-11-23T07:40:12.155Z,23.67
2018-11-23T07:42:40.597Z,22.73
2018-11-23T07:45:09.067Z,22.87
2018-11-23T07:47:37.515Z,23.80
2018-11-23T07:50:07.670Z,22.13
2018-11-23T07:52:36.451Z,22.20
2018-11-23T07:55:05.955Z,22.23
2018-11-23T07:57:34.417Z,24.40
2018-11-23T08:00:02.917Z,23.57
2018-11-23T08:02:31.368Z,22.73
2018-11-23T08:04:59.838Z,22.97
2018-11-23T08:07:28.300Z,23.33
2018-11-23T08:09:56.896Z,24.07
2018-11-23T08:12:25.498Z,22.17
2018-11-23T08:14:53.965Z,23.50
2018-11-23T08:17:22.467Z,25.00
2018-11-23T08:19:50.921Z,24.03
2018-11-23T08:22:19.374Z,21.93
2018-11-23T08:24:47.853Z,22.17
2018-11-23T08:27:16.322Z,23.37
2018-11-23T08:29:44.771Z,23.40
2018-11-23T08:32:13.302Z,22.57
2018-11-23T08:34:41.759Z,23.40
2018-11-23T08:37:10.245Z,22.87
2018-11-23T08:39:38.721Z,23.60
2018-11-23T08:42:07.176Z,22.97
2018-11-23T08:44:35.626Z,22.83
2018-11-23T08:47:04.081Z,23.07
2018-11-23T08:49:32.543Z,22.73
2018-11-23T08:52:01.043Z,22.33
2018-11-23T08:54:29.556Z,22.20
2018-11-23T08:56:57.986Z,21.40
2018-11-23T08:59:26.404Z,22.50
2018-11-23T09:01:55.191Z,23.17
2018-11-23T09:04:23.617Z,22.27
2018-11-23T09:06:52.037Z,22.40
2018-11-23T09:09:20.480Z,21.47
2018-11-23T09:11:48.921Z,22.70
2018-11-23T09:14:17.379Z,22.60
2018-11-23T09:16:45.823Z,22.70
2018-11-23T09:19:14.296Z,21.87
2018-11-23T09:21:42.766Z,21.83
2018-11-23T09:24:11.302Z,20.17
2018-11-23T09:26:39.871Z,20.30
2018-11-23T09:29:08.309Z,21.50
2018-11-23T09:31:36.829Z,21.57
2018-11-23T09:34:05.498Z,19.70
2018-11-23T09:36:34.076Z,21.63
2018-11-23T09:39:02.558Z,21.30
2018-11-23T09:41:30.981Z,20.10
2018-11-23T09:43:59.409Z,22.13
2018-11-23T09:46:27.837Z,20.97
2018-11-23T09:48:56.265Z,20.63
2018-11-23T09:51:24.737Z,21.03
2018-11-23T09:53:53.458Z,19.33
2018-11-23T09:56:22.398Z,20.50
2018-11-23T09:58:50.839Z,20.13
2018-11-23T10:01:19.288Z,21.27
2018-11-23T10:03:47.723Z,20.60
2018-11-23T10:06:16.150Z,21.40
2018-11-23T10:08:44.590Z,22.07
2018-11-23T10:11:13.026Z,20.70
2018-11-23T10:13:41.557Z,20.43
2018-11-23T10:16:09.980Z,20.63
2018-11-23T10:18:38.431Z,20.43
2018-11-23T10:21:06.984Z,19.50
2018-11-23T10:23:35.414Z,20.47
2018-11-23T10:26:03.834Z,19.77
2018-11-23T10:28:32.277Z,21.13
2018-11-23T10:31:00.726Z,20.90
2018-11-23T10:33:29.164Z,20.97
2018-11-23T10:35:57.732Z,19.37
2018-11-23T10:38:26.101Z,19.63
2018-11-23T10:40:54.530Z,21.93
2018-11-23T10:43:22.962Z,21.03
2018-11-23T10:45:51.408Z,21.40
2018-11-23T10:48:19.861Z,21.33
2018-11-23T10:50:48.314Z,20.77
2018-11-23T10:53:16.731Z,20.57
2018-11-23T10:55:45.186Z,20.50
2018-11-23T10:58:13.742Z,20.43
2018-11-23T11:01:48.590Z,19.90
2018-11-23T11:07:07.601Z,19.83
2018-11-23T11:09:36.404Z,20.53
2018-11-23T11:12:05.133Z,21.53
2018-11-23T11:14:33.758Z,21.27
2018-11-23T11:17:02.208Z,21.23
2018-11-23T11:19:30.661Z,21.37
2018-11-23T11:21:59.102Z,20.83
2018-11-23T11:24:27.533Z,21.13
2018-11-23T11:26:55.980Z,21.33
2018-11-23T11:29:24.431Z,20.60
2018-11-23T11:31:53.049Z,20.53
2018-11-23T11:34:21.492Z,20.20
2018-11-23T11:36:49.937Z,20.07
2018-11-23T11:39:18.394Z,20.23
2018-11-23T11:41:46.938Z,20.33
2018-11-23T11:44:15.379Z,21.37
2018-11-23T11:46:43.834Z,20.70
2018-11-23T11:49:12.285Z,20.83
2018-11-23T11:51:40.749Z,21.27
2018-11-23T11:54:09.185Z,20.40
2018-11-23T11:56:37.612Z,20.43
2018-11-23T11:59:06.223Z,20.10
2018-11-23T12:01:34.709Z,20.93
2018-11-23T12:04:03.237Z,21.63
2018-11-23T12:06:31.686Z,20.73
2018-11-23T12:09:00.110Z,20.43
2018-11-23T12:11:28.567Z,22.27
2018-11-23T12:13:57.014Z,20.77
2018-11-23T12:16:25.432Z,21.80
2018-11-23T12:18:53.897Z,20.73
2018-11-23T12:21:22.357Z,19.90
2018-11-23T12:23:50.776Z,20.37
2018-11-23T12:26:19.290Z,21.50
2018-11-23T12:28:47.722Z,21.90
2018-11-23T12:31:16.138Z,21.50
2018-11-23T12:33:44.890Z,22.30
2018-11-23T12:36:13.421Z,20.43
2018-11-23T12:38:43.144Z,22.20
2018-11-23T12:41:10.381Z,19.67
2018-11-23T12:43:39.000Z,21.33
2018-11-23T12:46:07.425Z,21.47
2018-11-23T12:48:35.883Z,21.57
2018-11-23T12:51:04.430Z,20.87
2018-11-23T12:53:32.884Z,21.90
2018-11-23T12:56:01.362Z,20.90
2018-11-23T12:58:29.814Z,20.70
2018-11-23T13:00:58.274Z,21.03
2018-11-23T13:03:26.705Z,21.57
2018-11-23T13:05:55.189Z,21.33
2018-11-23T13:08:23.665Z,21.87
2018-11-23T13:10:52.078Z,21.03
2018-11-23T13:13:20.521Z,21.57
2018-11-23T13:15:49.032Z,20.60
2018-11-23T13:18:17.479Z,20.97
2018-11-23T13:20:45.945Z,20.07
2018-11-23T13:23:15.401Z,21.10
2018-11-23T13:25:43.859Z,20.97
2018-11-23T13:28:12.353Z,21.80
2018-11-23T13:30:40.784Z,22.03
2018-11-23T13:33:09.260Z,20.33
2018-11-23T13:35:37.690Z,21.43
2018-11-23T13:38:06.114Z,21.30
2018-11-23T13:40:34.616Z,21.13
2018-11-23T13:43:03.033Z,21.27
2018-11-23T13:45:33.001Z,18.93
2018-11-23T13:48:01.490Z,20.80
2018-11-23T13:50:30.163Z,20.93
2018-11-23T13:53:00.187Z,22.10
2018-11-23T13:55:28.603Z,21.00
2018-11-23T13:58:01.340Z,22.53
2018-11-23T14:00:30.330Z,20.63
2018-11-23T14:02:58.773Z,22.20
2018-11-23T14:05:28.711Z,22.17
2018-11-23T14:07:58.749Z,21.10
2018-11-23T14:10:27.949Z,21.80
2018-11-23T14:12:56.388Z,22.67
2018-11-23T14:15:26.008Z,21.23
2018-11-23T14:17:55.518Z,21.00
2018-11-23T14:20:24.754Z,20.87
2018-11-23T14:22:53.601Z,21.53
2018-11-23T14:25:23.558Z,21.23
2018-11-23T14:27:52.430Z,21.20
2018-11-23T14:30:24.504Z,22.87
2018-11-23T14:32:53.257Z,21.13
2018-11-23T14:35:23.306Z,21.23
2018-11-23T14:37:52.742Z,22.40
2018-11-23T14:40:21.200Z,22.73
2018-11-23T14:42:50.382Z,21.97
2018-11-23T14:45:21.458Z,21.47
2018-11-23T14:47:50.720Z,22.43
2018-11-23T14:50:20.780Z,21.43
2018-11-23T14:52:50.494Z,23.93
2018-11-23T14:55:19.439Z,22.63
2018-11-23T14:57:48.260Z,21.77
2018-11-23T15:00:21.513Z,21.87
2018-11-23T15:02:51.234Z,21.53
2018-11-23T15:05:19.931Z,21.67
2018-11-23T15:07:48.600Z,20.73
2018-11-23T15:10:18.641Z,21.80
2018-11-23T15:12:48.346Z,21.13
2018-11-23T15:15:19.151Z,21.00
2018-11-23T15:17:48.660Z,21.87
2018-11-23T15:20:19.903Z,22.53
2018-11-23T15:22:50.187Z,21.03
2018-11-23T15:25:18.730Z,20.83
2018-11-23T15:27:47.300Z,22.40
2018-11-23T15:30:19.442Z,22.40
2018-11-23T15:32:48.052Z,21.13
2018-11-23T15:35:16.909Z,22.00
2018-11-23T15:37:45.449Z,21.27
2018-11-23T15:40:16.462Z,21.47
2018-11-23T15:42:45.470Z,22.50
2018-11-23T16:15:25.274Z,21.83
2018-11-23T16:17:54.174Z,24.57
2018-11-23T16:20:26.365Z,25.10
2018-11-23T16:22:56.248Z,24.57
2018-11-23T16:25:24.669Z,24.97
2018-11-23T16:27:54.842Z,24.00
2018-11-23T16:30:26.629Z,23.80
2018-11-23T16:32:59.706Z,23.87
2018-11-23T16:35:29.628Z,24.93
2018-11-23T16:37:59.533Z,24.37
2018-11-23T16:40:30.365Z,23.33
2018-11-23T16:42:59.785Z,23.70
2018-11-23T20:03:23.971Z,28.70
2018-11-23T20:05:52.439Z,28.07
2018-11-23T20:08:36.291Z,29.20
2018-11-23T20:11:04.931Z,28.63
2018-11-23T20:13:43.919Z,28.90
2018-11-23T20:16:12.526Z,29.77
2018-11-23T20:18:41.007Z,27.57
2018-11-23T20:21:09.500Z,27.93
2018-11-23T20:26:59.599Z,30.13
2018-11-23T20:29:28.069Z,29.50
2018-11-23T20:31:56.556Z,31.37
2018-11-23T20:34:32.719Z,30.77
2018-11-23T20:40:23.529Z,29.20
2018-11-23T20:42:51.997Z,29.10
2018-11-23T20:45:20.496Z,27.07
2018-11-23T20:47:56.842Z,29.57
2018-11-23T20:53:46.931Z,28.50
2018-11-23T20:56:18.857Z,27.80
2018-11-23T20:58:47.334Z,29.20
2018-11-23T21:01:23.076Z,27.50
2018-11-23T21:34:03.257Z,27.93
2018-11-23T21:36:31.808Z,28.47
2018-11-23T21:39:00.250Z,27.67
2018-11-23T21:41:29.809Z,28.20
2018-11-23T21:43:57.212Z,29.53
2018-11-23T21:46:25.666Z,29.90
2018-11-23T21:48:54.155Z,27.40
2018-11-23T21:51:22.731Z,27.03
2018-11-23T21:53:51.200Z,29.33
2018-11-23T21:56:19.672Z,28.47
2018-11-23T22:02:09.599Z,27.67
2018-11-23T22:04:38.064Z,28.60
2018-11-23T22:07:06.504Z,27.80
2018-11-23T22:09:36.111Z,29.90
2018-11-23T22:12:06.411Z,31.53
2018-11-23T22:14:34.868Z,30.57
2018-11-23T22:17:03.377Z,30.57
2018-11-23T22:19:34.948Z,31.27
2018-11-23T22:22:03.475Z,31.83
2018-11-23T22:24:31.943Z,32.17
2018-11-23T22:27:00.809Z,30.37
2018-11-23T22:29:29.312Z,29.17
2018-11-23T22:31:57.843Z,27.87
2018-11-23T22:34:26.318Z,29.03
2018-11-23T22:36:56.731Z,29.43
2018-11-23T22:39:25.212Z,29.87
2018-11-23T22:41:53.678Z,30.93
2018-11-23T22:44:22.150Z,30.00
2018-11-23T22:46:50.634Z,28.77
2018-11-23T22:49:19.068Z,29.87
2018-11-23T23:05:13.695Z,27.63
2018-11-23T23:07:42.188Z,28.27
2018-11-23T23:10:10.671Z,28.83
2018-11-23T23:12:39.114Z,28.17
2018-11-23T23:15:10.455Z,27.60
2018-11-23T23:17:39.231Z,28.70
2018-11-23T23:33:44.050Z,23.93
2018-11-23T23:36:12.514Z,28.47
2018-11-23T23:38:40.989Z,28.00
2018-11-23T23:41:09.460Z,28.77
2018-11-23T23:43:37.889Z,29.90
2018-11-23T23:46:06.436Z,30.00
2018-11-23T23:48:34.889Z,30.57
2018-11-23T23:51:03.424Z,28.40
2018-11-23T23:53:31.894Z,28.50
2018-11-23T23:56:00.425Z,28.73
2018-11-23T23:58:38.421Z,27.70
